sensor_id;sensor_type;location;lat;lon;timestamp;pressure;altitude;pressure_sealevel;temperature
15453;BMP280;7827;53.594;9.938;2023-07-20T00:01:53;29704.31;;;-135.29
15453;BMP280;7827;53.594;9.938;2023-07-20T00:04:22;29669.50;;;-135.29
15453;BMP280;7827;53.594;9.938;2023-07-20T00:06:50;29400.63;;;-135.29
15453;BMP280;7827;53.594;9.938;2023-07-20T00:09:18;29530.22;;;-135.29
15453;BMP280;7827;53.594;9.938;2023-07-20T00:11:50;29431.56;;;-135.29
15453;BMP280;7827;53.594;9.938;2023-07-20T00:14:20;29723.66;;;-135.29
15453;BMP280;7827;53.594;9.938;2023-07-20T00:16:51;29684.97;;;-135.29
15453;BMP280;7827;53.594;9.938;2023-07-20T00:19:24;29580.50;;;-135.29
15453;BMP280;7827;53.594;9.938;2023-07-20T00:21:53;29510.88;;;-135.29
15453;BMP280;7827;53.594;9.938;2023-07-20T00:24:22;29623.06;;;-135.29
15453;BMP280;7827;53.594;9.938;2023-07-20T00:26:50;29495.41;;;-135.29
15453;BMP280;7827;53.594;9.938;2023-07-20T00:29:18;29464.44;;;-135.29
15453;BMP280;7827;53.594;9.938;2023-07-20T00:31:47;29688.84;;;-135.29
15453;BMP280;7827;53.594;9.938;2023-07-20T00:34:19;29476.06;;;-135.29
15453;BMP280;7827;53.594;9.938;2023-07-20T00:36:48;29565.03;;;-135.29
15453;BMP280;7827;53.594;9.938;2023-07-20T00:39:17;29630.81;;;-135.29
15453;BMP280;7827;53.594;9.938;2023-07-20T00:41:45;29590.19;;;-135.29
15453;BMP280;7827;53.594;9.938;2023-07-20T00:44:13;29514.75;;;-135.29
15453;BMP280;7827;53.594;9.938;2023-07-20T00:46:42;29547.63;;;-135.29
15453;BMP280;7827;53.594;9.938;2023-07-20T00:49:11;29683.03;;;-135.29
15453;BMP280;7827;53.594;9.938;2023-07-20T00:51:41;29743.00;;;-135.29
15453;BMP280;7827;53.594;9.938;2023-07-20T00:54:10;29743.00;;;-135.29
15453;BMP280;7827;53.594;9.938;2023-07-20T00:56:39;29808.78;;;-135.29
15453;BMP280;7827;53.594;9.938;2023-07-20T00:59:07;29979.03;;;-135.29
15453;BMP280;7827;53.594;9.938;2023-07-20T01:01:36;29839.75;;;-135.29
15453;BMP280;7827;53.594;9.938;2023-07-20T01:04:05;29760.44;;;-135.29
15453;BMP280;7827;53.594;9.938;2023-07-20T01:06:44;29804.94;;;-135.29
15453;BMP280;7827;53.594;9.938;2023-07-20T01:09:20;29975.19;;;-135.29
15453;BMP280;7827;53.594;9.938;2023-07-20T01:11:59;29866.84;;;-135.29
15453;BMP280;7827;53.594;9.938;2023-07-20T01:14:32;29942.28;;;-135.29
15453;BMP280;7827;53.594;9.938;2023-07-20T01:17:03;29866.84;;;-135.29
15453;BMP280;7827;53.594;9.938;2023-07-20T01:19:31;29888.13;;;-135.29
15453;BMP280;7827;53.594;9.938;2023-07-20T01:22:09;29932.63;;;-135.29
15453;BMP280;7827;53.594;9.938;2023-07-20T01:24:56;30010.00;;;-135.29
15453;BMP280;7827;53.594;9.938;2023-07-20T01:30:59;30120.28;;;-135.29
15453;BMP280;7827;53.594;9.938;2023-07-20T01:33:33;30050.63;;;-135.29
15453;BMP280;7827;53.594;9.938;2023-07-20T01:36:03;29901.66;;;-135.29
15453;BMP280;7827;53.594;9.938;2023-07-20T01:38:33;29955.84;;;-135.29
15453;BMP280;7827;53.594;9.938;2023-07-20T01:41:02;29971.31;;;-135.29
15453;BMP280;7827;53.594;9.938;2023-07-20T01:43:31;30046.75;;;-135.29
15453;BMP280;7827;53.594;9.938;2023-07-20T01:45:59;30011.94;;;-135.29
15453;BMP280;7827;53.594;9.938;2023-07-20T01:48:27;30019.69;;;-135.29
15453;BMP280;7827;53.594;9.938;2023-07-20T01:50:57;29891.97;;;-135.29
15453;BMP280;7827;53.594;9.938;2023-07-20T01:53:25;29953.91;;;-135.29
15453;BMP280;7827;53.594;9.938;2023-07-20T01:55:54;30033.22;;;-135.29
15453;BMP280;7827;53.594;9.938;2023-07-20T01:58:23;29986.78;;;-135.29
15453;BMP280;7827;53.594;9.938;2023-07-20T02:00:51;30176.41;;;-135.29
15453;BMP280;7827;53.594;9.938;2023-07-20T02:03:20;30203.50;;;-135.29
15453;BMP280;7827;53.594;9.938;2023-07-20T02:05:51;30133.84;;;-135.29
15453;BMP280;7827;53.594;9.938;2023-07-20T02:08:20;30139.63;;;-135.29
15453;BMP280;7827;53.594;9.938;2023-07-20T02:10:50;30087.41;;;-135.29
15453;BMP280;7827;53.594;9.938;2023-07-20T02:13:19;30126.09;;;-135.29
15453;BMP280;7827;53.594;9.938;2023-07-20T02:15:47;30151.25;;;-135.29
15453;BMP280;7827;53.594;9.938;2023-07-20T02:18:18;30124.16;;;-135.29
15453;BMP280;7827;53.594;9.938;2023-07-20T02:20:46;30149.31;;;-135.29
15453;BMP280;7827;53.594;9.938;2023-07-20T02:23:14;29990.66;;;-135.29
15453;BMP280;7827;53.594;9.938;2023-07-20T02:25:44;29880.38;;;-135.29
15453;BMP280;7827;53.594;9.938;2023-07-20T02:28:15;29992.59;;;-135.29
15453;BMP280;7827;53.594;9.938;2023-07-20T02:30:43;29971.31;;;-135.29
15453;BMP280;7827;53.594;9.938;2023-07-20T02:33:11;30116.41;;;-135.29
15453;BMP280;7827;53.594;9.938;2023-07-20T02:35:40;30046.75;;;-135.29
15453;BMP280;7827;53.594;9.938;2023-07-20T02:38:09;29963.56;;;-135.29
15453;BMP280;7827;53.594;9.938;2023-07-20T02:40:37;29905.53;;;-135.29
15453;BMP280;7827;53.594;9.938;2023-07-20T02:43:07;30021.63;;;-135.29
15453;BMP280;7827;53.594;9.938;2023-07-20T02:45:40;30000.34;;;-135.29
15453;BMP280;7827;53.594;9.938;2023-07-20T02:48:09;30141.56;;;-135.29
15453;BMP280;7827;53.594;9.938;2023-07-20T02:50:38;30110.63;;;-135.29
15453;BMP280;7827;53.594;9.938;2023-07-20T02:53:06;30246.06;;;-135.29
15453;BMP280;7827;53.594;9.938;2023-07-20T02:55:34;30110.63;;;-135.29
15453;BMP280;7827;53.594;9.938;2023-07-20T02:58:03;30197.69;;;-135.29
15453;BMP280;7827;53.594;9.938;2023-07-20T03:00:33;30249.94;;;-135.29
15453;BMP280;7827;53.594;9.938;2023-07-20T03:03:01;30203.50;;;-135.29
15453;BMP280;7827;53.594;9.938;2023-07-20T03:05:29;30269.28;;;-135.29
15453;BMP280;7827;53.594;9.938;2023-07-20T03:07:58;30261.53;;;-135.29
15453;BMP280;7827;53.594;9.938;2023-07-20T03:10:29;30321.53;;;-135.29
15453;BMP280;7827;53.594;9.938;2023-07-20T03:12:58;30439.56;;;-135.29
15453;BMP280;7827;53.594;9.938;2023-07-20T03:15:26;30410.53;;;-135.29
15453;BMP280;7827;53.594;9.938;2023-07-20T03:17:58;30294.44;;;-135.29
15453;BMP280;7827;53.594;9.938;2023-07-20T03:20:28;30302.19;;;-135.29
15453;BMP280;7827;53.594;9.938;2023-07-20T03:22:56;30371.84;;;-135.29
15453;BMP280;7827;53.594;9.938;2023-07-20T03:25:25;30416.34;;;-135.29
15453;BMP280;7827;53.594;9.938;2023-07-20T03:27:55;30561.47;;;-135.29
15453;BMP280;7827;53.594;9.938;2023-07-20T03:30:23;30366.03;;;-135.29
15453;BMP280;7827;53.594;9.938;2023-07-20T03:32:52;30555.66;;;-135.29
15453;BMP280;7827;53.594;9.938;2023-07-20T03:35:22;30364.09;;;-135.29
15453;BMP280;7827;53.594;9.938;2023-07-20T03:37:50;30234.44;;;-135.29
15453;BMP280;7827;53.594;9.938;2023-07-20T03:40:19;30371.84;;;-135.29
15453;BMP280;7827;53.594;9.938;2023-07-20T03:42:47;30458.91;;;-135.29
15453;BMP280;7827;53.594;9.938;2023-07-20T03:45:16;30288.63;;;-135.29
15453;BMP280;7827;53.594;9.938;2023-07-20T03:47:44;30249.94;;;-135.29
15453;BMP280;7827;53.594;9.938;2023-07-20T03:50:15;30482.13;;;-135.29
15453;BMP280;7827;53.594;9.938;2023-07-20T03:52:45;30551.81;;;-135.29
15453;BMP280;7827;53.594;9.938;2023-07-20T03:55:13;30335.06;;;-135.29
15453;BMP280;7827;53.594;9.938;2023-07-20T03:57:42;30277.03;;;-135.29
15453;BMP280;7827;53.594;9.938;2023-07-20T04:00:12;30416.34;;;-135.29
15453;BMP280;7827;53.594;9.938;2023-07-20T04:02:41;30333.13;;;-135.29
15453;BMP280;7827;53.594;9.938;2023-07-20T04:05:10;30211.22;;;-135.29
15453;BMP280;7827;53.594;9.938;2023-07-20T04:07:38;30335.06;;;-135.29
15453;BMP280;7827;53.594;9.938;2023-07-20T04:10:09;30383.44;;;-135.29
15453;BMP280;7827;53.594;9.938;2023-07-20T04:12:37;30327.31;;;-135.29
15453;BMP280;7827;53.594;9.938;2023-07-20T04:15:08;30184.13;;;-135.29
15453;BMP280;7827;53.594;9.938;2023-07-20T04:17:36;30261.53;;;-135.29
15453;BMP280;7827;53.594;9.938;2023-07-20T04:20:06;30188.00;;;-135.29
15453;BMP280;7827;53.594;9.938;2023-07-20T04:22:35;30257.66;;;-135.29
15453;BMP280;7827;53.594;9.938;2023-07-20T04:25:08;30228.66;;;-135.29
15453;BMP280;7827;53.594;9.938;2023-07-20T04:27:36;30213.16;;;-135.29
15453;BMP280;7827;53.594;9.938;2023-07-20T04:30:08;29816.53;;;-135.29
15453;BMP280;7827;53.594;9.938;2023-07-20T04:32:37;29170.44;;;-135.29
15453;BMP280;7827;53.594;9.938;2023-07-20T04:35:48;29073.72;;;-135.29
15453;BMP280;7827;53.594;9.938;2023-07-20T04:38:20;28567.03;;;-135.29
15453;BMP280;7827;53.594;9.938;2023-07-20T04:40:57;28284.72;;;-135.29
15453;BMP280;7827;53.594;9.938;2023-07-20T04:43:29;28255.69;;;-135.29
15453;BMP280;7827;53.594;9.938;2023-07-20T04:45:58;27894.16;;;-135.29
15453;BMP280;7827;53.594;9.938;2023-07-20T04:48:26;27760.75;;;-135.29
15453;BMP280;7827;53.594;9.938;2023-07-20T04:50:55;28168.69;;;-135.29
15453;BMP280;7827;53.594;9.938;2023-07-20T04:53:25;28168.69;;;-135.29
15453;BMP280;7827;53.594;9.938;2023-07-20T04:55:53;27524.91;;;-135.29
15453;BMP280;7827;53.594;9.938;2023-07-20T04:58:25;27236.91;;;-135.29
15453;BMP280;7827;53.594;9.938;2023-07-20T05:00:54;27320.03;;;-135.29
15453;BMP280;7827;53.594;9.938;2023-07-20T05:03:23;27205.97;;;-135.29
15453;BMP280;7827;53.594;9.938;2023-07-20T05:05:52;27028.16;;;-135.29
15453;BMP280;7827;53.594;9.938;2023-07-20T05:08:21;26831.03;;;-135.29
15453;BMP280;7827;53.594;9.938;2023-07-20T05:10:50;27360.59;;;-135.29
15453;BMP280;7827;53.594;9.938;2023-07-20T05:13:19;26977.91;;;-135.29
15453;BMP280;7827;53.594;9.938;2023-07-20T05:15:53;26572.09;;;-135.29
15453;BMP280;7827;53.594;9.938;2023-07-20T05:18:23;26419.44;;;-135.29
15453;BMP280;7827;53.594;9.938;2023-07-20T05:20:51;26693.81;;;-135.29
15453;BMP280;7827;53.594;9.938;2023-07-20T05:23:21;26854.22;;;-135.29
15453;BMP280;7827;53.594;9.938;2023-07-20T05:25:55;27341.28;;;-135.29
15453;BMP280;7827;53.594;9.938;2023-07-20T05:28:23;27004.97;;;-135.29
15453;BMP280;7827;53.594;9.938;2023-07-20T05:30:53;26927.66;;;-135.29
15453;BMP280;7827;53.594;9.938;2023-07-20T05:33:22;26494.78;;;-135.29
15453;BMP280;7827;53.594;9.938;2023-07-20T05:35:50;26506.38;;;-135.29
15453;BMP280;7827;53.594;9.938;2023-07-20T05:38:19;26703.50;;;-135.29
15453;BMP280;7827;53.594;9.938;2023-07-20T05:40:47;26479.34;;;-135.29
15453;BMP280;7827;53.594;9.938;2023-07-20T05:43:15;26597.19;;;-135.29
15453;BMP280;7827;53.594;9.938;2023-07-20T05:45:44;26572.09;;;-135.29
15453;BMP280;7827;53.594;9.938;2023-07-20T05:48:16;26230.06;;;-135.29
15453;BMP280;7827;53.594;9.938;2023-07-20T05:50:44;26429.09;;;-135.29
15453;BMP280;7827;53.594;9.938;2023-07-20T05:53:12;26639.72;;;-135.29
15453;BMP280;7827;53.594;9.938;2023-07-20T05:55:41;27066.81;;;-135.29
15453;BMP280;7827;53.594;9.938;2023-07-20T05:58:09;26688.03;;;-135.29
15453;BMP280;7827;53.594;9.938;2023-07-20T06:00:37;26829.09;;;-135.29
15453;BMP280;7827;53.594;9.938;2023-07-20T06:03:06;27240.78;;;-135.29
15453;BMP280;7827;53.594;9.938;2023-07-20T06:05:37;27519.13;;;-135.29
15453;BMP280;7827;53.594;9.938;2023-07-20T06:08:05;27617.69;;;-135.29
15453;BMP280;7827;53.594;9.938;2023-07-20T06:10:34;27700.81;;;-135.29
15453;BMP280;7827;53.594;9.938;2023-07-20T06:13:02;27617.69;;;-135.29
15453;BMP280;7827;53.594;9.938;2023-07-20T06:15:33;27642.84;;;-135.29
15453;BMP280;7827;53.594;9.938;2023-07-20T06:18:02;27778.16;;;-135.29
15453;BMP280;7827;53.594;9.938;2023-07-20T06:20:31;27754.97;;;-135.29
15453;BMP280;7827;53.594;9.938;2023-07-20T06:23:01;27484.31;;;-135.29
15453;BMP280;7827;53.594;9.938;2023-07-20T06:25:29;27275.56;;;-135.29
15453;BMP280;7827;53.594;9.938;2023-07-20T06:27:58;27111.28;;;-135.29
15453;BMP280;7827;53.594;9.938;2023-07-20T06:30:26;27445.66;;;-135.29
15453;BMP280;7827;53.594;9.938;2023-07-20T06:32:54;27068.75;;;-135.29
15453;BMP280;7827;53.594;9.938;2023-07-20T06:35:23;27018.50;;;-135.29
15453;BMP280;7827;53.594;9.938;2023-07-20T06:37:51;27298.75;;;-135.29
15453;BMP280;7827;53.594;9.938;2023-07-20T06:40:21;27047.50;;;-135.29
15453;BMP280;7827;53.594;9.938;2023-07-20T06:42:52;27279.44;;;-135.29
15453;BMP280;7827;53.594;9.938;2023-07-20T06:45:24;27122.88;;;-135.29
15453;BMP280;7827;53.594;9.938;2023-07-20T06:47:52;26956.66;;;-135.29
15453;BMP280;7827;53.594;9.938;2023-07-20T06:50:21;27035.91;;;-135.29
15453;BMP280;7827;53.594;9.938;2023-07-20T06:52:54;27014.63;;;-135.29
15453;BMP280;7827;53.594;9.938;2023-07-20T06:55:26;26601.06;;;-135.29
15453;BMP280;7827;53.594;9.938;2023-07-20T06:57:55;26610.72;;;-135.29
15453;BMP280;7827;53.594;9.938;2023-07-20T07:00:25;26541.16;;;-135.29
15453;BMP280;7827;53.594;9.938;2023-07-20T07:02:54;26208.81;;;-135.29
15453;BMP280;7827;53.594;9.938;2023-07-20T07:05:22;25716.16;;;-135.29
15453;BMP280;7827;53.594;9.938;2023-07-20T07:07:51;25849.47;;;-135.29
15453;BMP280;7827;53.594;9.938;2023-07-20T07:10:19;26212.69;;;-135.29
15453;BMP280;7827;53.594;9.938;2023-07-20T07:12:49;25834.00;;;-135.29
15453;BMP280;7827;53.594;9.938;2023-07-20T07:15:18;26042.66;;;-135.29
15453;BMP280;7827;53.594;9.938;2023-07-20T07:17:46;26061.97;;;-135.29
15453;BMP280;7827;53.594;9.938;2023-07-20T07:20:15;25855.25;;;-135.29
15453;BMP280;7827;53.594;9.938;2023-07-20T07:22:50;25532.66;;;-135.29
15453;BMP280;7827;53.594;9.938;2023-07-20T07:25:20;25111.59;;;-135.29
15453;BMP280;7827;53.594;9.938;2023-07-20T07:27:52;25387.78;;;-135.29
15453;BMP280;7827;53.594;9.938;2023-07-20T07:30:21;25401.31;;;-135.29
15453;BMP280;7827;53.594;9.938;2023-07-20T07:32:49;26230.06;;;-135.29
15453;BMP280;7827;53.594;9.938;2023-07-20T07:35:18;26691.91;;;-135.29
15453;BMP280;7827;53.594;9.938;2023-07-20T07:37:46;27182.78;;;-135.29
15453;BMP280;7827;53.594;9.938;2023-07-20T07:40:17;27140.25;;;-135.29
15453;BMP280;7827;53.594;9.938;2023-07-20T07:42:46;27097.75;;;-135.29
15453;BMP280;7827;53.594;9.938;2023-07-20T07:45:16;26780.78;;;-135.29
15453;BMP280;7827;53.594;9.938;2023-07-20T07:47:44;26467.72;;;-135.29
15453;BMP280;7827;53.594;9.938;2023-07-20T07:50:13;26166.31;;;-135.29
15453;BMP280;7827;53.594;9.938;2023-07-20T07:52:41;25600.25;;;-135.29
15453;BMP280;7827;53.594;9.938;2023-07-20T07:55:09;25521.06;;;-135.29
15453;BMP280;7827;53.594;9.938;2023-07-20T07:57:37;26168.25;;;-135.29
15453;BMP280;7827;53.594;9.938;2023-07-20T08:00:07;26289.97;;;-135.29
15453;BMP280;7827;53.594;9.938;2023-07-20T08:02:41;26251.31;;;-135.29
15453;BMP280;7827;53.594;9.938;2023-07-20T08:05:10;25996.28;;;-135.29
15453;BMP280;7827;53.594;9.938;2023-07-20T08:07:38;26320.88;;;-135.29
15453;BMP280;7827;53.594;9.938;2023-07-20T08:10:08;25764.47;;;-135.29
15453;BMP280;7827;53.594;9.938;2023-07-20T08:12:37;25227.47;;;-135.29
15453;BMP280;7827;53.594;9.938;2023-07-20T08:15:07;25100.00;;;-135.29
15453;BMP280;7827;53.594;9.938;2023-07-20T08:17:35;25161.81;;;-135.29
15453;BMP280;7827;53.594;9.938;2023-07-20T08:20:07;25022.75;;;-135.29
15453;BMP280;7827;53.594;9.938;2023-07-20T08:22:38;25528.78;;;-135.29
15453;BMP280;7827;53.594;9.938;2023-07-20T08:25:08;25700.72;;;-135.29
15453;BMP280;7827;53.594;9.938;2023-07-20T08:27:37;25524.94;;;-135.29
15453;BMP280;7827;53.594;9.938;2023-07-20T08:30:07;25229.41;;;-135.29
15453;BMP280;7827;53.594;9.938;2023-07-20T08:32:36;24746.59;;;-135.29
15453;BMP280;7827;53.594;9.938;2023-07-20T08:35:06;24483.97;;;-135.29
15453;BMP280;7827;53.594;9.938;2023-07-20T08:37:35;23588.16;;;-135.29
15453;BMP280;7827;53.594;9.938;2023-07-20T08:40:04;23864.22;;;-135.29
15453;BMP280;7827;53.594;9.938;2023-07-20T08:42:38;24686.72;;;-135.29
15453;BMP280;7827;53.594;9.938;2023-07-20T08:45:09;26011.75;;;-135.29
15453;BMP280;7827;53.594;9.938;2023-07-20T08:47:38;26769.19;;;-135.29
15453;BMP280;7827;53.594;9.938;2023-07-20T08:50:09;27310.34;;;-135.29
15453;BMP280;7827;53.594;9.938;2023-07-20T08:52:38;27422.47;;;-135.29
15453;BMP280;7827;53.594;9.938;2023-07-20T08:55:07;27513.31;;;-135.29
15453;BMP280;7827;53.594;9.938;2023-07-20T08:57:38;26985.66;;;-135.29
15453;BMP280;7827;53.594;9.938;2023-07-20T09:00:11;26456.16;;;-135.29
15453;BMP280;7827;53.594;9.938;2023-07-20T09:02:41;26286.09;;;-135.29
15453;BMP280;7827;53.594;9.938;2023-07-20T09:05:12;25606.06;;;-135.29
15453;BMP280;7827;53.594;9.938;2023-07-20T09:07:41;25540.38;;;-135.29
15453;BMP280;7827;53.594;9.938;2023-07-20T09:10:10;25092.28;;;-135.29
15453;BMP280;7827;53.594;9.938;2023-07-20T09:12:42;25169.53;;;-135.29
15453;BMP280;7827;53.594;9.938;2023-07-20T09:15:12;25022.75;;;-135.29
15453;BMP280;7827;53.594;9.938;2023-07-20T09:17:46;24721.47;;;-135.29
15453;BMP280;7827;53.594;9.938;2023-07-20T09:20:18;25351.09;;;-135.29
15453;BMP280;7827;53.594;9.938;2023-07-20T09:22:51;26056.19;;;-135.29
15453;BMP280;7827;53.594;9.938;2023-07-20T09:25:22;27325.81;;;-135.29
15453;BMP280;7827;53.594;9.938;2023-07-20T09:27:55;28033.34;;;-135.29
15453;BMP280;7827;53.594;9.938;2023-07-20T09:30:26;28162.91;;;-135.29
15453;BMP280;7827;53.594;9.938;2023-07-20T09:32:58;28385.25;;;-135.29
15453;BMP280;7827;53.594;9.938;2023-07-20T09:35:28;28539.94;;;-135.29
15453;BMP280;7827;53.594;9.938;2023-07-20T09:38:09;28541.88;;;-135.29
15453;BMP280;7827;53.594;9.938;2023-07-20T09:40:41;28489.69;;;-135.29
15453;BMP280;7827;53.594;9.938;2023-07-20T09:43:15;28539.94;;;-135.29
15453;BMP280;7827;53.594;9.938;2023-07-20T09:45:47;28174.50;;;-135.29
15453;BMP280;7827;53.594;9.938;2023-07-20T09:48:24;28238.31;;;-135.29
15453;BMP280;7827;53.594;9.938;2023-07-20T09:50:57;27971.47;;;-135.29
15453;BMP280;7827;53.594;9.938;2023-07-20T09:53:27;27990.81;;;-135.29
15453;BMP280;7827;53.594;9.938;2023-07-20T09:55:58;27310.34;;;-135.29
15453;BMP280;7827;53.594;9.938;2023-07-20T09:58:40;27008.84;;;-135.29
15453;BMP280;7827;53.594;9.938;2023-07-20T10:01:12;27095.81;;;-135.29
15453;BMP280;7827;53.594;9.938;2023-07-20T10:03:46;26672.56;;;-135.29
15453;BMP280;7827;53.594;9.938;2023-07-20T10:06:23;26400.09;;;-135.29
15453;BMP280;7827;53.594;9.938;2023-07-20T10:08:53;26098.69;;;-135.29
15453;BMP280;7827;53.594;9.938;2023-07-20T10:11:29;25864.91;;;-135.29
15453;BMP280;7827;53.594;9.938;2023-07-20T10:14:03;25482.44;;;-135.29
15453;BMP280;7827;53.594;9.938;2023-07-20T10:16:36;25291.22;;;-135.29
15453;BMP280;7827;53.594;9.938;2023-07-20T10:19:13;24982.19;;;-135.29
15453;BMP280;7827;53.594;9.938;2023-07-20T10:21:52;24451.13;;;-135.29
15453;BMP280;7827;53.594;9.938;2023-07-20T10:24:26;24611.41;;;-135.29
15453;BMP280;7827;53.594;9.938;2023-07-20T10:26:56;24953.22;;;-135.29
15453;BMP280;7827;53.594;9.938;2023-07-20T10:29:25;24354.59;;;-135.29
15453;BMP280;7827;53.594;9.938;2023-07-20T10:31:57;24555.41;;;-135.29
15453;BMP280;7827;53.594;9.938;2023-07-20T10:34:30;24509.06;;;-135.29
15453;BMP280;7827;53.594;9.938;2023-07-20T10:37:06;23968.47;;;-135.29
15453;BMP280;7827;53.594;9.938;2023-07-20T10:39:36;23887.38;;;-135.29
15453;BMP280;7827;53.594;9.938;2023-07-20T10:42:07;23703.97;;;-135.29
15453;BMP280;7827;53.594;9.938;2023-07-20T10:44:38;23192.47;;;-135.29
15453;BMP280;7827;53.594;9.938;2023-07-20T10:47:10;23207.91;;;-135.29
15453;BMP280;7827;53.594;9.938;2023-07-20T10:49:58;24113.25;;;-135.29
15453;BMP280;7827;53.594;9.938;2023-07-20T10:52:39;25250.66;;;-135.29
15453;BMP280;7827;53.594;9.938;2023-07-20T10:55:14;25385.84;;;-135.29
15453;BMP280;7827;53.594;9.938;2023-07-20T10:57:42;25579.00;;;-135.29
15453;BMP280;7827;53.594;9.938;2023-07-20T11:00:14;24443.41;;;-135.29
15453;BMP280;7827;53.594;9.938;2023-07-20T11:02:49;23995.50;;;-135.29
15453;BMP280;7827;53.594;9.938;2023-07-20T11:05:36;23837.19;;;-135.29
15453;BMP280;7827;53.594;9.938;2023-07-20T11:08:12;24727.28;;;-135.29
15453;BMP280;7827;53.594;9.938;2023-07-20T11:10:40;25159.88;;;-135.29
15453;BMP280;7827;53.594;9.938;2023-07-20T11:13:21;25764.47;;;-135.29
15453;BMP280;7827;53.594;9.938;2023-07-20T11:16:04;26017.53;;;-135.29
15453;BMP280;7827;53.594;9.938;2023-07-20T11:18:34;25476.63;;;-135.29
15453;BMP280;7827;53.594;9.938;2023-07-20T11:21:09;25080.69;;;-135.29
15453;BMP280;7827;53.594;9.938;2023-07-20T11:23:40;24306.31;;;-135.29
15453;BMP280;7827;53.594;9.938;2023-07-20T11:26:09;25231.34;;;-135.29
15453;BMP280;7827;53.594;9.938;2023-07-20T11:28:39;25470.84;;;-135.29
15453;BMP280;7827;53.594;9.938;2023-07-20T11:31:07;25034.34;;;-135.29
15453;BMP280;7827;53.594;9.938;2023-07-20T11:33:37;24675.13;;;-135.29
15453;BMP280;7827;53.594;9.938;2023-07-20T11:36:08;24800.66;;;-135.29
15453;BMP280;7827;53.594;9.938;2023-07-20T11:38:42;24717.63;;;-135.29
15453;BMP280;7827;53.594;9.938;2023-07-20T11:41:12;24748.50;;;-135.29
15453;BMP280;7827;53.594;9.938;2023-07-20T11:43:41;25103.84;;;-135.29
15453;BMP280;7827;53.594;9.938;2023-07-20T11:46:10;24775.56;;;-135.29
15453;BMP280;7827;53.594;9.938;2023-07-20T11:48:38;25051.72;;;-135.29
15453;BMP280;7827;53.594;9.938;2023-07-20T11:51:14;25424.47;;;-135.29
15453;BMP280;7827;53.594;9.938;2023-07-20T11:53:45;25667.88;;;-135.29
15453;BMP280;7827;53.594;9.938;2023-07-20T11:56:15;25235.19;;;-135.29
15453;BMP280;7827;53.594;9.938;2023-07-20T11:58:44;24895.28;;;-135.29
15453;BMP280;7827;53.594;9.938;2023-07-20T12:01:13;24339.16;;;-135.29
15453;BMP280;7827;53.594;9.938;2023-07-20T12:03:42;24088.16;;;-135.29
15453;BMP280;7827;53.594;9.938;2023-07-20T12:06:12;23514.81;;;-135.29
15453;BMP280;7827;53.594;9.938;2023-07-20T12:08:44;23553.41;;;-135.29
15453;BMP280;7827;53.594;9.938;2023-07-20T12:11:12;23906.69;;;-135.29
15453;BMP280;7827;53.594;9.938;2023-07-20T12:13:43;23796.66;;;-135.29
15453;BMP280;7827;53.594;9.938;2023-07-20T12:16:14;23617.13;;;-135.29
15453;BMP280;7827;53.594;9.938;2023-07-20T12:18:44;23632.56;;;-135.29
15453;BMP280;7827;53.594;9.938;2023-07-20T12:21:12;23470.41;;;-135.29
15453;BMP280;7827;53.594;9.938;2023-07-20T12:23:41;24032.16;;;-135.29
15453;BMP280;7827;53.594;9.938;2023-07-20T12:26:14;24076.56;;;-135.29
15453;BMP280;7827;53.594;9.938;2023-07-20T12:28:43;24489.75;;;-135.29
15453;BMP280;7827;53.594;9.938;2023-07-20T12:31:12;24991.84;;;-135.29
15453;BMP280;7827;53.594;9.938;2023-07-20T12:33:41;24781.34;;;-135.29
15453;BMP280;7827;53.594;9.938;2023-07-20T12:36:10;24845.06;;;-135.29
15453;BMP280;7827;53.594;9.938;2023-07-20T12:38:39;24688.66;;;-135.29
15453;BMP280;7827;53.594;9.938;2023-07-20T12:41:12;24754.31;;;-135.29
15453;BMP280;7827;53.594;9.938;2023-07-20T12:43:42;24802.59;;;-135.29
15453;BMP280;7827;53.594;9.938;2023-07-20T12:46:12;24779.41;;;-135.29
15453;BMP280;7827;53.594;9.938;2023-07-20T12:48:41;24420.25;;;-135.29
15453;BMP280;7827;53.594;9.938;2023-07-20T12:51:14;24507.13;;;-135.29
15453;BMP280;7827;53.594;9.938;2023-07-20T12:53:42;23922.13;;;-135.29
15453;BMP280;7827;53.594;9.938;2023-07-20T12:56:12;23723.28;;;-135.29
15453;BMP280;7827;53.594;9.938;2023-07-20T12:58:43;23590.09;;;-135.29
15453;BMP280;7827;53.594;9.938;2023-07-20T13:01:11;22742.81;;;-135.29
15453;BMP280;7827;53.594;9.938;2023-07-20T13:03:40;22135.03;;;-135.29
15453;BMP280;7827;53.594;9.938;2023-07-20T13:06:11;21770.44;;;-135.29
15453;BMP280;7827;53.594;9.938;2023-07-20T13:08:43;21004.72;;;-135.29
15453;BMP280;7827;53.594;9.938;2023-07-20T13:11:12;20613.25;;;-135.29
15453;BMP280;7827;53.594;9.938;2023-07-20T13:13:41;20372.25;;;-135.29
15453;BMP280;7827;53.594;9.938;2023-07-20T13:16:09;20272.00;;;-135.29
15453;BMP280;7827;53.594;9.938;2023-07-20T13:18:37;20279.69;;;-135.29
15453;BMP280;7827;53.594;9.938;2023-07-20T13:21:06;21403.94;;;-135.29
15453;BMP280;7827;53.594;9.938;2023-07-20T13:23:39;21469.53;;;-135.29
15453;BMP280;7827;53.594;9.938;2023-07-20T13:26:08;21452.16;;;-135.29
15453;BMP280;7827;53.594;9.938;2023-07-20T13:28:37;21272.78;;;-135.29
15453;BMP280;7827;53.594;9.938;2023-07-20T13:31:06;21658.53;;;-135.29
15453;BMP280;7827;53.594;9.938;2023-07-20T13:33:38;21824.44;;;-135.29
15453;BMP280;7827;53.594;9.938;2023-07-20T13:36:06;21693.28;;;-135.29
15453;BMP280;7827;53.594;9.938;2023-07-20T13:38:36;22401.28;;;-135.29
15453;BMP280;7827;53.594;9.938;2023-07-20T13:41:04;22378.13;;;-135.29
15453;BMP280;7827;53.594;9.938;2023-07-20T13:43:33;22007.72;;;-135.29
15453;BMP280;7827;53.594;9.938;2023-07-20T13:46:02;22752.47;;;-135.29
15453;BMP280;7827;53.594;9.938;2023-07-20T13:48:31;23038.09;;;-135.29
15453;BMP280;7827;53.594;9.938;2023-07-20T13:51:03;22694.59;;;-135.29
15453;BMP280;7827;53.594;9.938;2023-07-20T13:53:31;22192.91;;;-135.29
15453;BMP280;7827;53.594;9.938;2023-07-20T13:56:03;22673.34;;;-135.29
15453;BMP280;7827;53.594;9.938;2023-07-20T13:58:35;21733.78;;;-135.29
15453;BMP280;7827;53.594;9.938;2023-07-20T14:01:08;20684.59;;;-135.29
15453;BMP280;7827;53.594;9.938;2023-07-20T14:03:36;19911.50;;;-135.29
15453;BMP280;7827;53.594;9.938;2023-07-20T14:06:05;19315.88;;;-135.29
15453;BMP280;7827;53.594;9.938;2023-07-20T14:08:37;19221.44;;;-135.29
15453;BMP280;7827;53.594;9.938;2023-07-20T14:11:05;18955.50;;;-135.29
15453;BMP280;7827;53.594;9.938;2023-07-20T14:13:36;17920.88;;;-135.29
15453;BMP280;7827;53.594;9.938;2023-07-20T14:16:15;18454.53;;;-135.29
15453;BMP280;7827;53.594;9.938;2023-07-20T14:18:43;18024.91;;;-135.29